N656MF KMLB-07FA
Flight info
| Callsign | N656MF |
|---|---|
| Flight time | 0h 33m |
| Altitude | 45000 |
| Route | DHP PALMZ2 |
| Aircraft | C25C/M-VGDW/C |
Departure
| Time | 2026-04-12 20:23 |
|---|---|
| Airport | Melbourne Orlando International Airport (KMLB) |
Arrival
| Time | 2026-04-12 20:56 |
|---|---|
| Airport | Ocean Reef Club Airport (07FA) |
| Time | Latitude | Longitude | Altitude | Speed | Heading |
|---|---|---|---|---|---|
| 2026-04-12 20:16 | 28.10789 | -80.64836 | 33 ft | 0 kts | 348° |
| 2026-04-12 20:20 | 28.10790 | -80.64838 | 33 ft | 1 kts | 317° |
| 2026-04-12 20:20 | 28.10767 | -80.64890 | 35 ft | 18 kts | 243° |
| 2026-04-12 20:20 | 28.10690 | -80.64966 | 35 ft | 14 kts | 214° |
| 2026-04-12 20:21 | 28.10675 | -80.65081 | 36 ft | 17 kts | 266° |
| 2026-04-12 20:21 | 28.10668 | -80.65230 | 36 ft | 20 kts | 266° |
| 2026-04-12 20:21 | 28.10650 | -80.65533 | 33 ft | 56 kts | 266° |
| 2026-04-12 20:21 | 28.10639 | -80.65836 | 30 ft | 34 kts | 266° |
| 2026-04-12 20:22 | 28.10620 | -80.65978 | 29 ft | 0 kts | 215° |
| 2026-04-12 20:22 | 28.10618 | -80.65980 | 29 ft | 4 kts | 211° |
| 2026-04-12 20:22 | 28.10550 | -80.65943 | 27 ft | 19 kts | 105° |
| 2026-04-12 20:22 | 28.10562 | -80.65548 | 33 ft | 98 kts | 86° |
| 2026-04-12 20:23 | 28.10663 | -80.64478 | 491 ft | 157 kts | 83° |
| 2026-04-12 20:23 | 28.10804 | -80.62987 | 1031 ft | 229 kts | 83° |
| 2026-04-12 20:23 | 28.11054 | -80.61134 | 2450 ft | 245 kts | 80° |
| 2026-04-12 20:23 | 28.11123 | -80.59276 | 4064 ft | 225 kts | 114° |
| 2026-04-12 20:24 | 28.09909 | -80.58789 | 5348 ft | 215 kts | 198° |
| 2026-04-12 20:24 | 28.08329 | -80.59398 | 5590 ft | 260 kts | 200° |
| 2026-04-12 20:24 | 28.06575 | -80.60124 | 6423 ft | 265 kts | 201° |
| 2026-04-12 20:24 | 28.04906 | -80.60875 | 7709 ft | 255 kts | 203° |
| 2026-04-12 20:25 | 28.03245 | -80.61719 | 8815 ft | 274 kts | 206° |
| 2026-04-12 20:25 | 28.01486 | -80.62726 | 10072 ft | 289 kts | 207° |
| 2026-04-12 20:25 | 27.99642 | -80.63762 | 11351 ft | 302 kts | 205° |
| 2026-04-12 20:25 | 27.97573 | -80.64345 | 12650 ft | 314 kts | 185° |
| 2026-04-12 20:26 | 27.95363 | -80.64179 | 13947 ft | 323 kts | 171° |
| 2026-04-12 20:26 | 27.93139 | -80.63678 | 15243 ft | 328 kts | 169° |
| 2026-04-12 20:26 | 27.90906 | -80.63222 | 16520 ft | 331 kts | 172° |
| 2026-04-12 20:26 | 27.88609 | -80.62936 | 17812 ft | 333 kts | 175° |
| 2026-04-12 20:27 | 27.86311 | -80.62674 | 19097 ft | 332 kts | 174° |
| 2026-04-12 20:27 | 27.84020 | -80.62358 | 20378 ft | 330 kts | 173° |
| 2026-04-12 20:27 | 27.81740 | -80.62030 | 21598 ft | 329 kts | 173° |
| 2026-04-12 20:27 | 27.79475 | -80.61714 | 22802 ft | 326 kts | 173° |
| 2026-04-12 20:28 | 27.77238 | -80.61417 | 24003 ft | 321 kts | 173° |
| 2026-04-12 20:28 | 27.75045 | -80.61118 | 25200 ft | 313 kts | 173° |
| 2026-04-12 20:28 | 27.72914 | -80.60823 | 26390 ft | 304 kts | 173° |
| 2026-04-12 20:28 | 27.70851 | -80.60541 | 27575 ft | 292 kts | 173° |
| 2026-04-12 20:29 | 27.68873 | -80.60273 | 28685 ft | 284 kts | 173° |
| 2026-04-12 20:29 | 27.66881 | -80.60005 | 29232 ft | 294 kts | 173° |
| 2026-04-12 20:29 | 27.64816 | -80.59734 | 29746 ft | 304 kts | 174° |
| 2026-04-12 20:29 | 27.62713 | -80.59462 | 30252 ft | 312 kts | 174° |
| 2026-04-12 20:30 | 27.60497 | -80.59179 | 30794 ft | 320 kts | 174° |
| 2026-04-12 20:30 | 27.58292 | -80.58903 | 31313 ft | 326 kts | 174° |
| 2026-04-12 20:30 | 27.55984 | -80.58618 | 31850 ft | 332 kts | 175° |
| 2026-04-12 20:30 | 27.53700 | -80.58484 | 32388 ft | 334 kts | 180° |
| 2026-04-12 20:31 | 27.51370 | -80.58613 | 32924 ft | 337 kts | 185° |
| 2026-04-12 20:31 | 27.49058 | -80.59043 | 33442 ft | 337 kts | 193° |
| 2026-04-12 20:31 | 27.46736 | -80.59430 | 33971 ft | 339 kts | 180° |
| 2026-04-12 20:31 | 27.44363 | -80.59213 | 34299 ft | 346 kts | 171° |
| 2026-04-12 20:32 | 27.41970 | -80.58788 | 34763 ft | 348 kts | 171° |
| 2026-04-12 20:32 | 27.39581 | -80.58410 | 35391 ft | 345 kts | 173° |
| 2026-04-12 20:32 | 27.37210 | -80.58083 | 35912 ft | 343 kts | 174° |
| 2026-04-12 20:32 | 27.34840 | -80.57613 | 36298 ft | 346 kts | 171° |
| 2026-04-12 20:33 | 27.32449 | -80.57293 | 36744 ft | 346 kts | 175° |
| 2026-04-12 20:33 | 27.30045 | -80.57015 | 37189 ft | 347 kts | 173° |
| 2026-04-12 20:33 | 27.27653 | -80.56656 | 37633 ft | 347 kts | 172° |
| 2026-04-12 20:33 | 27.25262 | -80.56268 | 38076 ft | 347 kts | 172° |
| 2026-04-12 20:34 | 27.22869 | -80.55906 | 38520 ft | 346 kts | 173° |
| 2026-04-12 20:34 | 27.20478 | -80.55562 | 38958 ft | 346 kts | 173° |
| 2026-04-12 20:34 | 27.18097 | -80.55210 | 39396 ft | 345 kts | 173° |
| 2026-04-12 20:34 | 27.15721 | -80.54854 | 39836 ft | 343 kts | 172° |
| 2026-04-12 20:35 | 27.13349 | -80.54499 | 40273 ft | 342 kts | 173° |
| 2026-04-12 20:35 | 27.11026 | -80.54153 | 40703 ft | 340 kts | 173° |
| 2026-04-12 20:35 | 27.08658 | -80.53803 | 41142 ft | 338 kts | 173° |
| 2026-04-12 20:35 | 27.06334 | -80.53459 | 41577 ft | 335 kts | 173° |
| 2026-04-12 20:36 | 27.04053 | -80.53118 | 42001 ft | 333 kts | 173° |
| 2026-04-12 20:36 | 27.01765 | -80.52780 | 42431 ft | 330 kts | 173° |
| 2026-04-12 20:36 | 26.99499 | -80.52444 | 42860 ft | 327 kts | 173° |
| 2026-04-12 20:36 | 26.97251 | -80.52109 | 43199 ft | 327 kts | 173° |
| 2026-04-12 20:37 | 26.94993 | -80.51776 | 43484 ft | 328 kts | 173° |
| 2026-04-12 20:37 | 26.92726 | -80.51439 | 43771 ft | 329 kts | 173° |
| 2026-04-12 20:37 | 26.90454 | -80.51102 | 44059 ft | 330 kts | 173° |
| 2026-04-12 20:37 | 26.88179 | -80.50767 | 44349 ft | 330 kts | 173° |
| 2026-04-12 20:38 | 26.85901 | -80.50428 | 44639 ft | 330 kts | 173° |
| 2026-04-12 20:38 | 26.83620 | -80.50091 | 44889 ft | 332 kts | 172° |
| 2026-04-12 20:38 | 26.81307 | -80.49750 | 44966 ft | 339 kts | 173° |
| 2026-04-12 20:39 | 26.76512 | -80.49041 | 45013 ft | 356 kts | 173° |
| 2026-04-12 20:39 | 26.71473 | -80.48296 | 45011 ft | 374 kts | 173° |
| 2026-04-12 20:40 | 26.66208 | -80.47520 | 45012 ft | 389 kts | 173° |
| 2026-04-12 20:40 | 26.60743 | -80.46714 | 45010 ft | 402 kts | 173° |
| 2026-04-12 20:41 | 26.55149 | -80.45891 | 45013 ft | 414 kts | 173° |
| 2026-04-12 20:41 | 26.49370 | -80.45042 | 45013 ft | 424 kts | 173° |
| 2026-04-12 20:42 | 26.43464 | -80.44174 | 45009 ft | 432 kts | 173° |
| 2026-04-12 20:42 | 26.37449 | -80.43290 | 45008 ft | 439 kts | 173° |
| 2026-04-12 20:43 | 26.31341 | -80.42395 | 45011 ft | 446 kts | 173° |
| 2026-04-12 20:43 | 26.25156 | -80.41489 | 45011 ft | 451 kts | 173° |
| 2026-04-12 20:44 | 26.18918 | -80.40576 | 45010 ft | 450 kts | 173° |
| 2026-04-12 20:44 | 26.12770 | -80.39677 | 45008 ft | 440 kts | 173° |
| 2026-04-12 20:44 | 26.09744 | -80.39235 | 44822 ft | 437 kts | 173° |
| 2026-04-12 20:45 | 26.06719 | -80.38928 | 43460 ft | 406 kts | 181° |
| 2026-04-12 20:45 | 26.03974 | -80.38975 | 42229 ft | 405 kts | 185° |
| 2026-04-12 20:45 | 26.01123 | -80.39034 | 40921 ft | 411 kts | 176° |
| 2026-04-12 20:45 | 25.98304 | -80.38665 | 39890 ft | 405 kts | 172° |
| 2026-04-12 20:46 | 25.95568 | -80.38015 | 38867 ft | 400 kts | 165° |
| 2026-04-12 20:46 | 25.92919 | -80.37135 | 37841 ft | 394 kts | 162° |
| 2026-04-12 20:46 | 25.90341 | -80.36181 | 36818 ft | 388 kts | 161° |
| 2026-04-12 20:46 | 25.87812 | -80.35211 | 35754 ft | 381 kts | 161° |
| 2026-04-12 20:47 | 25.85313 | -80.34241 | 34265 ft | 381 kts | 161° |
| 2026-04-12 20:47 | 25.82814 | -80.33266 | 32713 ft | 380 kts | 161° |
| 2026-04-12 20:47 | 25.80328 | -80.32296 | 31164 ft | 377 kts | 161° |
| 2026-04-12 20:47 | 25.77870 | -80.31325 | 29620 ft | 373 kts | 159° |
| 2026-04-12 20:48 | 25.75599 | -80.30005 | 28042 ft | 364 kts | 139° |
| 2026-04-12 20:48 | 25.75046 | -80.27466 | 25586 ft | 361 kts | 45° |
| 2026-04-12 20:48 | 25.76848 | -80.28627 | 22438 ft | 380 kts | 268° |
| 2026-04-12 20:48 | 25.75178 | -80.30037 | 23288 ft | 302 kts | 181° |
| 2026-04-12 20:49 | 25.73163 | -80.29583 | 22162 ft | 297 kts | 166° |
| 2026-04-12 20:49 | 25.71138 | -80.29068 | 20974 ft | 281 kts | 166° |
| 2026-04-12 20:49 | 25.69353 | -80.28565 | 19551 ft | 281 kts | 165° |
| 2026-04-12 20:49 | 25.67427 | -80.27990 | 18623 ft | 291 kts | 164° |
| 2026-04-12 20:50 | 25.65503 | -80.27310 | 17743 ft | 297 kts | 161° |
| 2026-04-12 20:50 | 25.63543 | -80.26521 | 17065 ft | 293 kts | 160° |
| 2026-04-12 20:50 | 25.61695 | -80.25738 | 16602 ft | 283 kts | 159° |
| 2026-04-12 20:50 | 25.59871 | -80.24977 | 16044 ft | 278 kts | 160° |
| 2026-04-12 20:51 | 25.58044 | -80.24271 | 15313 ft | 279 kts | 162° |
| 2026-04-12 20:51 | 25.56180 | -80.23649 | 14577 ft | 280 kts | 165° |
| 2026-04-12 20:51 | 25.54298 | -80.23150 | 13995 ft | 275 kts | 168° |
| 2026-04-12 20:51 | 25.52476 | -80.22616 | 13374 ft | 271 kts | 154° |
| 2026-04-12 20:52 | 25.50845 | -80.21558 | 11880 ft | 288 kts | 151° |
| 2026-04-12 20:52 | 25.49001 | -80.20504 | 10076 ft | 301 kts | 154° |
| 2026-04-12 20:52 | 25.47165 | -80.19760 | 9573 ft | 264 kts | 167° |
| 2026-04-12 20:52 | 25.45431 | -80.19407 | 8654 ft | 252 kts | 157° |
| 2026-04-12 20:53 | 25.45698 | -80.19208 | 6609 ft | 258 kts | 238° |
| 2026-04-12 20:53 | 25.44039 | -80.19731 | 5278 ft | 256 kts | 206° |
| 2026-04-12 20:53 | 25.42522 | -80.20496 | 4937 ft | 225 kts | 207° |
| 2026-04-12 20:53 | 25.41184 | -80.21272 | 4260 ft | 214 kts | 206° |
| 2026-04-12 20:54 | 25.39920 | -80.21976 | 3694 ft | 194 kts | 206° |
| 2026-04-12 20:54 | 25.38717 | -80.22627 | 2919 ft | 192 kts | 207° |
| 2026-04-12 20:54 | 25.37619 | -80.23303 | 2524 ft | 159 kts | 213° |
| 2026-04-12 20:54 | 25.36707 | -80.23926 | 1721 ft | 156 kts | 213° |
| 2026-04-12 20:55 | 25.35840 | -80.24603 | 1062 ft | 146 kts | 218° |
| 2026-04-12 20:55 | 25.35073 | -80.25250 | 638 ft | 127 kts | 218° |
| 2026-04-12 20:55 | 25.34445 | -80.25813 | 439 ft | 112 kts | 220° |
| 2026-04-12 20:55 | 25.33835 | -80.26364 | 280 ft | 114 kts | 220° |
| 2026-04-12 20:56 | 25.33219 | -80.26896 | 128 ft | 107 kts | 217° |
| 2026-04-12 20:56 | 25.32671 | -80.27369 | 11 ft | 90 kts | 218° |
| 2026-04-12 20:56 | 25.32328 | -80.27666 | 5 ft | 39 kts | 218° |
| 2026-04-12 20:56 | 25.32176 | -80.27775 | 8 ft | 10 kts | 192° |
| 2026-04-12 20:57 | 25.32138 | -80.27802 | 8 ft | 8 kts | 212° |
| 2026-04-12 20:57 | 25.32074 | -80.27836 | 8 ft | 10 kts | 213° |
| 2026-04-12 20:57 | 25.32068 | -80.27852 | 8 ft | 0 kts | 314° |